sensor_id;sensor_type;location;lat;lon;timestamp;temperature;humidity
17565;DHT22;62994;52.126;5.596;2022-08-19T00:01:57;19.70;99.90
17565;DHT22;62994;52.126;5.596;2022-08-19T00:04:26;19.70;99.90
17565;DHT22;62994;52.126;5.596;2022-08-19T00:06:54;19.70;99.90
17565;DHT22;62994;52.126;5.596;2022-08-19T00:09:23;19.60;99.90
17565;DHT22;62994;52.126;5.596;2022-08-19T00:11:51;19.70;99.90
17565;DHT22;62994;52.126;5.596;2022-08-19T00:14:19;19.60;99.90
17565;DHT22;62994;52.126;5.596;2022-08-19T00:16:48;19.60;99.90
17565;DHT22;62994;52.126;5.596;2022-08-19T00:19:17;19.60;99.90
17565;DHT22;62994;52.126;5.596;2022-08-19T00:21:44;19.60;99.90
17565;DHT22;62994;52.126;5.596;2022-08-19T00:24:12;19.60;99.90
17565;DHT22;62994;52.126;5.596;2022-08-19T00:26:40;19.60;99.90
17565;DHT22;62994;52.126;5.596;2022-08-19T00:29:10;19.50;99.90
17565;DHT22;62994;52.126;5.596;2022-08-19T00:31:39;19.50;99.90
17565;DHT22;62994;52.126;5.596;2022-08-19T00:34:07;19.50;99.90
17565;DHT22;62994;52.126;5.596;2022-08-19T00:36:34;19.50;99.90
17565;DHT22;62994;52.126;5.596;2022-08-19T00:39:01;19.50;99.90
17565;DHT22;62994;52.126;5.596;2022-08-19T00:41:28;19.40;99.90
17565;DHT22;62994;52.126;5.596;2022-08-19T00:44:00;19.40;99.90
17565;DHT22;62994;52.126;5.596;2022-08-19T00:46:28;19.40;99.90
17565;DHT22;62994;52.126;5.596;2022-08-19T00:48:57;19.40;99.90
17565;DHT22;62994;52.126;5.596;2022-08-19T00:51:26;19.30;99.90
17565;DHT22;62994;52.126;5.596;2022-08-19T00:53:54;19.30;99.90
17565;DHT22;62994;52.126;5.596;2022-08-19T00:56:21;19.20;99.90
17565;DHT22;62994;52.126;5.596;2022-08-19T00:58:49;19.10;99.90
17565;DHT22;62994;52.126;5.596;2022-08-19T01:01:16;19.10;99.90
17565;DHT22;62994;52.126;5.596;2022-08-19T01:03:43;19.00;99.90
17565;DHT22;62994;52.126;5.596;2022-08-19T01:06:11;19.00;99.90
17565;DHT22;62994;52.126;5.596;2022-08-19T01:08:38;18.90;99.90
17565;DHT22;62994;52.126;5.596;2022-08-19T01:11:06;18.90;99.90
17565;DHT22;62994;52.126;5.596;2022-08-19T01:13:34;18.80;99.90
17565;DHT22;62994;52.126;5.596;2022-08-19T01:16:05;18.80;99.90
17565;DHT22;62994;52.126;5.596;2022-08-19T01:18:36;18.70;99.90
17565;DHT22;62994;52.126;5.596;2022-08-19T01:21:09;18.70;99.90
17565;DHT22;62994;52.126;5.596;2022-08-19T01:23:38;18.70;99.90
17565;DHT22;62994;52.126;5.596;2022-08-19T01:26:13;18.70;99.90
17565;DHT22;62994;52.126;5.596;2022-08-19T01:28:42;18.70;99.90
17565;DHT22;62994;52.126;5.596;2022-08-19T01:31:12;18.70;99.90
17565;DHT22;62994;52.126;5.596;2022-08-19T01:33:39;18.70;99.90
17565;DHT22;62994;52.126;5.596;2022-08-19T01:36:08;18.70;99.90
17565;DHT22;62994;52.126;5.596;2022-08-19T01:38:41;18.60;99.90
17565;DHT22;62994;52.126;5.596;2022-08-19T01:41:09;18.60;99.90
17565;DHT22;62994;52.126;5.596;2022-08-19T01:43:36;18.60;99.90
17565;DHT22;62994;52.126;5.596;2022-08-19T01:46:04;18.50;99.90
17565;DHT22;62994;52.126;5.596;2022-08-19T01:48:34;18.50;99.90
17565;DHT22;62994;52.126;5.596;2022-08-19T01:51:00;18.50;99.90
17565;DHT22;62994;52.126;5.596;2022-08-19T01:53:28;18.40;99.90
17565;DHT22;62994;52.126;5.596;2022-08-19T01:55:57;18.40;99.90
17565;DHT22;62994;52.126;5.596;2022-08-19T01:58:28;18.40;99.90
17565;DHT22;62994;52.126;5.596;2022-08-19T02:00:56;18.40;99.90
17565;DHT22;62994;52.126;5.596;2022-08-19T02:03:23;18.30;99.90
17565;DHT22;62994;52.126;5.596;2022-08-19T02:05:54;18.30;99.90
17565;DHT22;62994;52.126;5.596;2022-08-19T02:08:24;18.20;99.90
17565;DHT22;62994;52.126;5.596;2022-08-19T02:10:52;18.20;99.90
17565;DHT22;62994;52.126;5.596;2022-08-19T02:13:21;18.10;99.90
17565;DHT22;62994;52.126;5.596;2022-08-19T02:15:48;18.10;99.90
17565;DHT22;62994;52.126;5.596;2022-08-19T02:18:15;18.10;99.90
17565;DHT22;62994;52.126;5.596;2022-08-19T02:20:43;18.10;99.90
17565;DHT22;62994;52.126;5.596;2022-08-19T02:23:13;18.10;99.90
17565;DHT22;62994;52.126;5.596;2022-08-19T02:25:40;18.10;99.90
17565;DHT22;62994;52.126;5.596;2022-08-19T02:28:08;18.10;99.90
17565;DHT22;62994;52.126;5.596;2022-08-19T02:30:36;18.10;99.90
17565;DHT22;62994;52.126;5.596;2022-08-19T02:33:03;18.00;99.90
17565;DHT22;62994;52.126;5.596;2022-08-19T02:35:31;18.00;99.90
17565;DHT22;62994;52.126;5.596;2022-08-19T02:37:58;18.00;99.90
17565;DHT22;62994;52.126;5.596;2022-08-19T02:40:48;18.00;99.90
17565;DHT22;62994;52.126;5.596;2022-08-19T02:43:17;18.00;99.90
17565;DHT22;62994;52.126;5.596;2022-08-19T02:45:48;18.00;99.90
17565;DHT22;62994;52.126;5.596;2022-08-19T02:48:16;18.00;99.90
17565;DHT22;62994;52.126;5.596;2022-08-19T02:50:44;18.00;99.90
17565;DHT22;62994;52.126;5.596;2022-08-19T02:53:11;17.90;99.90
17565;DHT22;62994;52.126;5.596;2022-08-19T02:55:43;17.90;99.90
17565;DHT22;62994;52.126;5.596;2022-08-19T02:58:11;17.90;99.90
17565;DHT22;62994;52.126;5.596;2022-08-19T03:00:42;17.90;99.90
17565;DHT22;62994;52.126;5.596;2022-08-19T03:03:11;17.90;99.90
17565;DHT22;62994;52.126;5.596;2022-08-19T03:05:40;17.90;99.90
17565;DHT22;62994;52.126;5.596;2022-08-19T03:08:07;17.80;99.90
17565;DHT22;62994;52.126;5.596;2022-08-19T03:10:40;17.80;99.90
17565;DHT22;62994;52.126;5.596;2022-08-19T03:13:09;17.80;99.90
17565;DHT22;62994;52.126;5.596;2022-08-19T03:15:40;17.80;99.90
17565;DHT22;62994;52.126;5.596;2022-08-19T03:18:07;17.70;99.90
17565;DHT22;62994;52.126;5.596;2022-08-19T03:20:40;17.70;99.90
17565;DHT22;62994;52.126;5.596;2022-08-19T03:23:07;17.80;99.90
17565;DHT22;62994;52.126;5.596;2022-08-19T03:25:37;17.70;99.90
17565;DHT22;62994;52.126;5.596;2022-08-19T03:28:04;17.80;99.90
17565;DHT22;62994;52.126;5.596;2022-08-19T03:30:31;17.70;99.90
17565;DHT22;62994;52.126;5.596;2022-08-19T03:32:58;17.70;99.90
17565;DHT22;62994;52.126;5.596;2022-08-19T03:35:25;17.60;99.90
17565;DHT22;62994;52.126;5.596;2022-08-19T03:37:53;17.60;99.90
17565;DHT22;62994;52.126;5.596;2022-08-19T03:40:21;17.60;99.90
17565;DHT22;62994;52.126;5.596;2022-08-19T03:42:48;17.60;99.90
17565;DHT22;62994;52.126;5.596;2022-08-19T03:45:15;17.50;99.90
17565;DHT22;62994;52.126;5.596;2022-08-19T03:47:42;17.70;99.90
17565;DHT22;62994;52.126;5.596;2022-08-19T03:50:10;17.70;99.90
17565;DHT22;62994;52.126;5.596;2022-08-19T03:52:37;17.70;99.90
17565;DHT22;62994;52.126;5.596;2022-08-19T03:55:07;17.70;99.90
17565;DHT22;62994;52.126;5.596;2022-08-19T03:57:34;17.70;99.90
17565;DHT22;62994;52.126;5.596;2022-08-19T04:00:03;17.70;99.90
17565;DHT22;62994;52.126;5.596;2022-08-19T04:02:31;17.60;99.90
17565;DHT22;62994;52.126;5.596;2022-08-19T04:04:58;17.50;99.90
17565;DHT22;62994;52.126;5.596;2022-08-19T04:07:25;17.50;99.90
17565;DHT22;62994;52.126;5.596;2022-08-19T04:09:52;17.50;99.90
17565;DHT22;62994;52.126;5.596;2022-08-19T04:12:20;17.40;99.90
17565;DHT22;62994;52.126;5.596;2022-08-19T04:14:47;17.50;99.90
17565;DHT22;62994;52.126;5.596;2022-08-19T04:17:14;17.40;99.90
17565;DHT22;62994;52.126;5.596;2022-08-19T04:19:41;17.30;99.90
17565;DHT22;62994;52.126;5.596;2022-08-19T04:22:09;17.30;99.90
17565;DHT22;62994;52.126;5.596;2022-08-19T04:24:37;17.30;99.90
17565;DHT22;62994;52.126;5.596;2022-08-19T04:27:04;17.20;99.90
17565;DHT22;62994;52.126;5.596;2022-08-19T04:29:33;17.20;99.90
17565;DHT22;62994;52.126;5.596;2022-08-19T04:32:00;17.20;99.90
17565;DHT22;62994;52.126;5.596;2022-08-19T04:34:28;17.20;99.90
17565;DHT22;62994;52.126;5.596;2022-08-19T04:36:57;17.10;99.90
17565;DHT22;62994;52.126;5.596;2022-08-19T04:39:27;17.10;99.90
17565;DHT22;62994;52.126;5.596;2022-08-19T04:42:15;17.10;99.90
17565;DHT22;62994;52.126;5.596;2022-08-19T04:45:01;17.10;99.90
17565;DHT22;62994;52.126;5.596;2022-08-19T04:47:29;17.00;99.90
17565;DHT22;62994;52.126;5.596;2022-08-19T04:49:58;17.00;99.90
17565;DHT22;62994;52.126;5.596;2022-08-19T04:52:25;17.00;99.90
17565;DHT22;62994;52.126;5.596;2022-08-19T04:54:52;17.00;99.90
17565;DHT22;62994;52.126;5.596;2022-08-19T04:57:21;17.00;99.90
17565;DHT22;62994;52.126;5.596;2022-08-19T04:59:48;17.00;99.90
17565;DHT22;62994;52.126;5.596;2022-08-19T05:02:16;17.00;99.90
17565;DHT22;62994;52.126;5.596;2022-08-19T05:04:43;17.00;99.90
17565;DHT22;62994;52.126;5.596;2022-08-19T05:07:10;17.00;99.90
17565;DHT22;62994;52.126;5.596;2022-08-19T05:09:37;17.00;99.90
17565;DHT22;62994;52.126;5.596;2022-08-19T05:12:05;17.00;99.90
17565;DHT22;62994;52.126;5.596;2022-08-19T05:14:32;17.00;99.90
17565;DHT22;62994;52.126;5.596;2022-08-19T05:17:01;17.00;99.90
17565;DHT22;62994;52.126;5.596;2022-08-19T05:19:29;17.10;99.90
17565;DHT22;62994;52.126;5.596;2022-08-19T05:22:13;17.10;99.90
17565;DHT22;62994;52.126;5.596;2022-08-19T05:25:01;17.20;99.90
17565;DHT22;62994;52.126;5.596;2022-08-19T05:27:28;17.20;99.90
17565;DHT22;62994;52.126;5.596;2022-08-19T05:29:54;17.20;99.90
17565;DHT22;62994;52.126;5.596;2022-08-19T05:32:21;17.20;99.90
17565;DHT22;62994;52.126;5.596;2022-08-19T05:34:50;17.30;99.90
17565;DHT22;62994;52.126;5.596;2022-08-19T05:37:19;17.30;99.90
17565;DHT22;62994;52.126;5.596;2022-08-19T05:39:47;17.40;99.90
17565;DHT22;62994;52.126;5.596;2022-08-19T05:42:15;17.50;99.90
17565;DHT22;62994;52.126;5.596;2022-08-19T05:44:43;17.50;99.90
17565;DHT22;62994;52.126;5.596;2022-08-19T05:47:11;17.60;99.90
17565;DHT22;62994;52.126;5.596;2022-08-19T05:49:41;17.60;99.90
17565;DHT22;62994;52.126;5.596;2022-08-19T05:52:11;17.70;99.90
17565;DHT22;62994;52.126;5.596;2022-08-19T05:54:39;17.80;99.90
17565;DHT22;62994;52.126;5.596;2022-08-19T05:57:07;17.90;99.90
17565;DHT22;62994;52.126;5.596;2022-08-19T05:59:35;18.00;99.90
17565;DHT22;62994;52.126;5.596;2022-08-19T06:02:03;18.10;99.90
17565;DHT22;62994;52.126;5.596;2022-08-19T06:04:32;18.30;99.90
17565;DHT22;62994;52.126;5.596;2022-08-19T06:06:59;18.30;99.90
17565;DHT22;62994;52.126;5.596;2022-08-19T06:09:29;18.50;99.90
17565;DHT22;62994;52.126;5.596;2022-08-19T06:11:57;18.50;99.90
17565;DHT22;62994;52.126;5.596;2022-08-19T06:14:27;18.70;99.90
17565;DHT22;62994;52.126;5.596;2022-08-19T06:16:55;18.80;99.90
17565;DHT22;62994;52.126;5.596;2022-08-19T06:19:22;19.00;99.90
17565;DHT22;62994;52.126;5.596;2022-08-19T06:21:52;19.00;99.90
17565;DHT22;62994;52.126;5.596;2022-08-19T06:24:21;19.20;99.90
17565;DHT22;62994;52.126;5.596;2022-08-19T06:26:52;19.30;99.90
17565;DHT22;62994;52.126;5.596;2022-08-19T06:29:22;19.40;99.90
17565;DHT22;62994;52.126;5.596;2022-08-19T06:31:51;19.50;99.90
17565;DHT22;62994;52.126;5.596;2022-08-19T06:34:19;19.60;99.90
17565;DHT22;62994;52.126;5.596;2022-08-19T06:36:48;19.70;99.90
17565;DHT22;62994;52.126;5.596;2022-08-19T06:39:18;19.80;99.90
17565;DHT22;62994;52.126;5.596;2022-08-19T06:41:47;19.90;99.90
17565;DHT22;62994;52.126;5.596;2022-08-19T06:44:16;20.10;99.90
17565;DHT22;62994;52.126;5.596;2022-08-19T06:46:43;20.30;99.90
17565;DHT22;62994;52.126;5.596;2022-08-19T06:49:11;20.40;99.90
17565;DHT22;62994;52.126;5.596;2022-08-19T06:51:40;20.50;99.90
17565;DHT22;62994;52.126;5.596;2022-08-19T06:54:07;20.60;99.90
17565;DHT22;62994;52.126;5.596;2022-08-19T06:56:35;20.70;99.90
17565;DHT22;62994;52.126;5.596;2022-08-19T06:59:03;20.70;99.90
17565;DHT22;62994;52.126;5.596;2022-08-19T07:01:35;20.70;99.90
17565;DHT22;62994;52.126;5.596;2022-08-19T07:04:04;20.80;99.90
17565;DHT22;62994;52.126;5.596;2022-08-19T07:06:31;20.90;99.90
17565;DHT22;62994;52.126;5.596;2022-08-19T07:08:59;21.00;99.90
17565;DHT22;62994;52.126;5.596;2022-08-19T07:11:26;21.20;99.90
17565;DHT22;62994;52.126;5.596;2022-08-19T07:13:53;21.20;99.90
17565;DHT22;62994;52.126;5.596;2022-08-19T07:16:20;21.30;99.90
17565;DHT22;62994;52.126;5.596;2022-08-19T07:18:50;21.40;99.90
17565;DHT22;62994;52.126;5.596;2022-08-19T07:21:20;21.40;99.90
17565;DHT22;62994;52.126;5.596;2022-08-19T07:23:48;21.60;99.90
17565;DHT22;62994;52.126;5.596;2022-08-19T07:26:18;21.70;99.90
17565;DHT22;62994;52.126;5.596;2022-08-19T07:28:46;21.80;99.90
17565;DHT22;62994;52.126;5.596;2022-08-19T07:31:15;21.70;99.90
17565;DHT22;62994;52.126;5.596;2022-08-19T07:33:44;21.80;99.90
17565;DHT22;62994;52.126;5.596;2022-08-19T07:36:14;21.80;99.90
17565;DHT22;62994;52.126;5.596;2022-08-19T07:38:43;21.70;99.90
17565;DHT22;62994;52.126;5.596;2022-08-19T07:41:12;21.70;99.90
17565;DHT22;62994;52.126;5.596;2022-08-19T07:43:40;21.70;99.90
17565;DHT22;62994;52.126;5.596;2022-08-19T07:46:09;21.70;99.90
17565;DHT22;62994;52.126;5.596;2022-08-19T07:48:37;21.80;99.90
17565;DHT22;62994;52.126;5.596;2022-08-19T07:51:06;21.80;99.90
17565;DHT22;62994;52.126;5.596;2022-08-19T07:53:36;21.90;99.90
17565;DHT22;62994;52.126;5.596;2022-08-19T07:56:04;22.00;99.90
17565;DHT22;62994;52.126;5.596;2022-08-19T07:58:32;22.00;99.90
17565;DHT22;62994;52.126;5.596;2022-08-19T08:01:00;22.10;99.90
17565;DHT22;62994;52.126;5.596;2022-08-19T08:03:28;22.20;99.90
17565;DHT22;62994;52.126;5.596;2022-08-19T08:06:09;22.20;99.90
17565;DHT22;62994;52.126;5.596;2022-08-19T08:08:54;22.40;99.90
17565;DHT22;62994;52.126;5.596;2022-08-19T08:11:35;22.40;99.90
17565;DHT22;62994;52.126;5.596;2022-08-19T08:14:02;22.50;99.90
17565;DHT22;62994;52.126;5.596;2022-08-19T08:16:33;22.40;99.90
17565;DHT22;62994;52.126;5.596;2022-08-19T08:19:00;22.30;99.90
17565;DHT22;62994;52.126;5.596;2022-08-19T08:21:27;22.20;99.90
17565;DHT22;62994;52.126;5.596;2022-08-19T08:23:55;22.20;99.90
17565;DHT22;62994;52.126;5.596;2022-08-19T08:26:23;22.10;99.90
17565;DHT22;62994;52.126;5.596;2022-08-19T08:28:50;22.10;99.90
17565;DHT22;62994;52.126;5.596;2022-08-19T08:31:17;22.20;99.90
17565;DHT22;62994;52.126;5.596;2022-08-19T08:33:45;22.30;99.90
17565;DHT22;62994;52.126;5.596;2022-08-19T08:36:13;22.60;99.90
17565;DHT22;62994;52.126;5.596;2022-08-19T08:38:41;22.90;99.90
17565;DHT22;62994;52.126;5.596;2022-08-19T08:41:18;23.10;99.90
17565;DHT22;62994;52.126;5.596;2022-08-19T08:43:50;23.20;99.90
17565;DHT22;62994;52.126;5.596;2022-08-19T08:46:22;23.60;99.90
17565;DHT22;62994;52.126;5.596;2022-08-19T08:48:56;23.80;99.90
17565;DHT22;62994;52.126;5.596;2022-08-19T08:51:29;24.10;99.90
17565;DHT22;62994;52.126;5.596;2022-08-19T08:53:59;24.30;99.90
17565;DHT22;62994;52.126;5.596;2022-08-19T08:56:28;24.40;99.90
17565;DHT22;62994;52.126;5.596;2022-08-19T08:58:59;24.50;99.90
17565;DHT22;62994;52.126;5.596;2022-08-19T09:01:27;24.30;99.90
17565;DHT22;62994;52.126;5.596;2022-08-19T09:03:54;24.20;99.90
17565;DHT22;62994;52.126;5.596;2022-08-19T09:06:29;24.00;99.90
17565;DHT22;62994;52.126;5.596;2022-08-19T09:09:02;24.10;99.90
17565;DHT22;62994;52.126;5.596;2022-08-19T09:11:42;24.20;99.90
17565;DHT22;62994;52.126;5.596;2022-08-19T09:14:20;24.40;99.90
17565;DHT22;62994;52.126;5.596;2022-08-19T09:16:50;24.60;99.90
17565;DHT22;62994;52.126;5.596;2022-08-19T09:19:17;24.80;99.90
17565;DHT22;62994;52.126;5.596;2022-08-19T09:21:44;25.00;99.90
17565;DHT22;62994;52.126;5.596;2022-08-19T09:24:11;25.20;99.90
17565;DHT22;62994;52.126;5.596;2022-08-19T09:26:40;25.20;99.90
17565;DHT22;62994;52.126;5.596;2022-08-19T09:29:09;25.20;99.90
17565;DHT22;62994;52.126;5.596;2022-08-19T09:31:36;25.10;99.90
17565;DHT22;62994;52.126;5.596;2022-08-19T09:34:03;25.10;99.90
17565;DHT22;62994;52.126;5.596;2022-08-19T09:36:31;25.00;99.90
17565;DHT22;62994;52.126;5.596;2022-08-19T09:38:59;24.90;99.90
17565;DHT22;62994;52.126;5.596;2022-08-19T09:41:27;24.80;99.90
17565;DHT22;62994;52.126;5.596;2022-08-19T09:43:56;24.80;99.90
17565;DHT22;62994;52.126;5.596;2022-08-19T09:46:25;25.00;99.90
17565;DHT22;62994;52.126;5.596;2022-08-19T09:48:53;25.10;99.90
17565;DHT22;62994;52.126;5.596;2022-08-19T09:51:24;25.30;99.90
17565;DHT22;62994;52.126;5.596;2022-08-19T09:53:54;25.40;99.90
17565;DHT22;62994;52.126;5.596;2022-08-19T09:56:22;25.60;99.90
17565;DHT22;62994;52.126;5.596;2022-08-19T09:58:49;25.60;99.90
17565;DHT22;62994;52.126;5.596;2022-08-19T10:01:20;25.60;99.90
17565;DHT22;62994;52.126;5.596;2022-08-19T10:03:49;25.40;99.90
17565;DHT22;62994;52.126;5.596;2022-08-19T10:06:18;25.50;99.90
17565;DHT22;62994;52.126;5.596;2022-08-19T10:08:45;25.60;99.90
17565;DHT22;62994;52.126;5.596;2022-08-19T10:11:13;25.90;99.90
17565;DHT22;62994;52.126;5.596;2022-08-19T10:13:43;26.20;99.90
17565;DHT22;62994;52.126;5.596;2022-08-19T10:16:12;26.50;99.90
17565;DHT22;62994;52.126;5.596;2022-08-19T10:18:41;26.70;99.90
17565;DHT22;62994;52.126;5.596;2022-08-19T10:21:11;26.70;99.90
17565;DHT22;62994;52.126;5.596;2022-08-19T10:23:40;26.60;99.90
17565;DHT22;62994;52.126;5.596;2022-08-19T10:26:11;26.60;99.90
17565;DHT22;62994;52.126;5.596;2022-08-19T10:28:39;26.60;99.90
17565;DHT22;62994;52.126;5.596;2022-08-19T10:31:08;26.70;99.90
17565;DHT22;62994;52.126;5.596;2022-08-19T10:33:37;26.80;99.90
17565;DHT22;62994;52.126;5.596;2022-08-19T10:36:08;26.80;99.90
17565;DHT22;62994;52.126;5.596;2022-08-19T10:38:35;27.00;99.90
17565;DHT22;62994;52.126;5.596;2022-08-19T10:41:10;27.40;99.90
17565;DHT22;62994;52.126;5.596;2022-08-19T10:43:37;27.70;99.90
17565;DHT22;62994;52.126;5.596;2022-08-19T10:46:05;27.80;99.90
17565;DHT22;62994;52.126;5.596;2022-08-19T10:48:35;27.60;99.90
17565;DHT22;62994;52.126;5.596;2022-08-19T10:51:04;27.60;99.90
17565;DHT22;62994;52.126;5.596;2022-08-19T10:53:51;27.40;99.90
17565;DHT22;62994;52.126;5.596;2022-08-19T10:56:18;27.50;99.90
17565;DHT22;62994;52.126;5.596;2022-08-19T10:59:04;27.60;99.90
17565;DHT22;62994;52.126;5.596;2022-08-19T11:01:32;27.50;99.90
17565;DHT22;62994;52.126;5.596;2022-08-19T11:04:01;27.60;99.90
17565;DHT22;62994;52.126;5.596;2022-08-19T11:06:28;27.70;99.90
17565;DHT22;62994;52.126;5.596;2022-08-19T11:08:57;28.00;99.90
17565;DHT22;62994;52.126;5.596;2022-08-19T11:11:26;28.40;99.90
17565;DHT22;62994;52.126;5.596;2022-08-19T11:13:54;28.40;99.90
17565;DHT22;62994;52.126;5.596;2022-08-19T11:16:22;28.30;99.90
17565;DHT22;62994;52.126;5.596;2022-08-19T11:18:51;28.20;99.90
17565;DHT22;62994;52.126;5.596;2022-08-19T11:21:21;28.40;99.90
17565;DHT22;62994;52.126;5.596;2022-08-19T11:23:50;28.70;99.90
17565;DHT22;62994;52.126;5.596;2022-08-19T11:26:20;28.90;99.90
17565;DHT22;62994;52.126;5.596;2022-08-19T11:28:48;29.00;99.90
17565;DHT22;62994;52.126;5.596;2022-08-19T11:31:19;29.10;99.90
17565;DHT22;62994;52.126;5.596;2022-08-19T11:33:47;29.20;99.90
17565;DHT22;62994;52.126;5.596;2022-08-19T11:36:17;29.00;99.90
17565;DHT22;62994;52.126;5.596;2022-08-19T11:38:45;28.80;99.90
17565;DHT22;62994;52.126;5.596;2022-08-19T11:41:15;29.00;99.90
17565;DHT22;62994;52.126;5.596;2022-08-19T11:43:43;29.30;99.90
17565;DHT22;62994;52.126;5.596;2022-08-19T11:46:16;29.40;99.90
17565;DHT22;62994;52.126;5.596;2022-08-19T11:48:44;29.30;99.90
17565;DHT22;62994;52.126;5.596;2022-08-19T11:51:13;29.40;99.90
17565;DHT22;62994;52.126;5.596;2022-08-19T11:53:41;29.40;99.90
17565;DHT22;62994;52.126;5.596;2022-08-19T11:56:09;29.40;99.90
17565;DHT22;62994;52.126;5.596;2022-08-19T11:58:37;29.30;99.90
17565;DHT22;62994;52.126;5.596;2022-08-19T12:01:08;29.60;99.90
17565;DHT22;62994;52.126;5.596;2022-08-19T12:03:44;29.80;99.90
17565;DHT22;62994;52.126;5.596;2022-08-19T12:06:14;30.00;99.90
17565;DHT22;62994;52.126;5.596;2022-08-19T12:08:43;30.50;99.90
17565;DHT22;62994;52.126;5.596;2022-08-19T12:11:11;31.20;99.90
17565;DHT22;62994;52.126;5.596;2022-08-19T12:13:39;31.70;99.90
17565;DHT22;62994;52.126;5.596;2022-08-19T12:16:09;32.30;99.90
17565;DHT22;62994;52.126;5.596;2022-08-19T12:18:37;32.90;99.90
17565;DHT22;62994;52.126;5.596;2022-08-19T12:21:05;33.00;99.90
17565;DHT22;62994;52.126;5.596;2022-08-19T12:23:32;32.90;99.90
17565;DHT22;62994;52.126;5.596;2022-08-19T12:25:59;32.50;99.90
17565;DHT22;62994;52.126;5.596;2022-08-19T12:28:26;32.10;99.90
17565;DHT22;62994;52.126;5.596;2022-08-19T12:30:53;31.70;99.90
17565;DHT22;62994;52.126;5.596;2022-08-19T12:33:21;31.60;99.90
17565;DHT22;62994;52.126;5.596;2022-08-19T12:35:51;31.60;99.90
17565;DHT22;62994;52.126;5.596;2022-08-19T12:38:19;31.70;99.90
17565;DHT22;62994;52.126;5.596;2022-08-19T12:40:49;31.70;99.90
17565;DHT22;62994;52.126;5.596;2022-08-19T12:43:17;31.50;99.90
17565;DHT22;62994;52.126;5.596;2022-08-19T12:45:46;31.20;99.90
17565;DHT22;62994;52.126;5.596;2022-08-19T12:48:13;30.90;99.90
17565;DHT22;62994;52.126;5.596;2022-08-19T12:50:42;30.50;99.90
17565;DHT22;62994;52.126;5.596;2022-08-19T12:53:10;30.00;99.90
17565;DHT22;62994;52.126;5.596;2022-08-19T12:55:37;29.50;99.90
17565;DHT22;62994;52.126;5.596;2022-08-19T12:58:04;29.10;99.90
17565;DHT22;62994;52.126;5.596;2022-08-19T13:00:31;28.70;99.90
17565;DHT22;62994;52.126;5.596;2022-08-19T13:02:59;28.40;99.90
17565;DHT22;62994;52.126;5.596;2022-08-19T13:05:29;28.20;99.90
17565;DHT22;62994;52.126;5.596;2022-08-19T13:07:58;27.90;99.90
17565;DHT22;62994;52.126;5.596;2022-08-19T13:10:30;27.80;99.90
17565;DHT22;62994;52.126;5.596;2022-08-19T13:13:01;27.60;99.90
17565;DHT22;62994;52.126;5.596;2022-08-19T13:15:29;27.50;99.90
17565;DHT22;62994;52.126;5.596;2022-08-19T13:17:57;27.40;99.90
17565;DHT22;62994;52.126;5.596;2022-08-19T13:20:25;27.30;99.90
17565;DHT22;62994;52.126;5.596;2022-08-19T13:22:52;27.20;99.90
17565;DHT22;62994;52.126;5.596;2022-08-19T13:25:21;27.10;99.90
17565;DHT22;62994;52.126;5.596;2022-08-19T13:27:51;27.10;99.90
17565;DHT22;62994;52.126;5.596;2022-08-19T13:30:21;27.00;99.90
17565;DHT22;62994;52.126;5.596;2022-08-19T13:33:07;26.80;99.90
17565;DHT22;62994;52.126;5.596;2022-08-19T13:35:37;26.70;99.90
17565;DHT22;62994;52.126;5.596;2022-08-19T13:38:05;26.50;99.90
17565;DHT22;62994;52.126;5.596;2022-08-19T13:40:33;26.20;99.90
17565;DHT22;62994;52.126;5.596;2022-08-19T13:43:02;25.60;99.90
17565;DHT22;62994;52.126;5.596;2022-08-19T13:45:31;25.10;99.90
17565;DHT22;62994;52.126;5.596;2022-08-19T13:48:00;24.70;99.90
17565;DHT22;62994;52.126;5.596;2022-08-19T13:50:30;24.20;99.90
17565;DHT22;62994;52.126;5.596;2022-08-19T13:52:57;23.90;99.90
17565;DHT22;62994;52.126;5.596;2022-08-19T13:55:26;23.60;99.90
17565;DHT22;62994;52.126;5.596;2022-08-19T13:57:57;23.40;99.90
17565;DHT22;62994;52.126;5.596;2022-08-19T14:00:27;23.20;99.90
17565;DHT22;62994;52.126;5.596;2022-08-19T14:02:55;23.10;99.90
17565;DHT22;62994;52.126;5.596;2022-08-19T14:05:26;23.00;99.90
17565;DHT22;62994;52.126;5.596;2022-08-19T14:07:54;22.90;99.90
17565;DHT22;62994;52.126;5.596;2022-08-19T14:10:22;22.80;99.90
17565;DHT22;62994;52.126;5.596;2022-08-19T14:12:53;22.80;99.90
17565;DHT22;62994;52.126;5.596;2022-08-19T14:15:28;22.60;99.90
17565;DHT22;62994;52.126;5.596;2022-08-19T14:17:55;22.50;99.90
17565;DHT22;62994;52.126;5.596;2022-08-19T14:20:26;22.30;99.90
17565;DHT22;62994;52.126;5.596;2022-08-19T14:22:57;22.10;99.90
17565;DHT22;62994;52.126;5.596;2022-08-19T14:25:29;21.80;99.90
17565;DHT22;62994;52.126;5.596;2022-08-19T14:27:59;21.70;99.90
17565;DHT22;62994;52.126;5.596;2022-08-19T14:30:32;21.50;99.90
17565;DHT22;62994;52.126;5.596;2022-08-19T14:33:05;21.40;99.90
17565;DHT22;62994;52.126;5.596;2022-08-19T14:35:33;21.40;99.90
17565;DHT22;62994;52.126;5.596;2022-08-19T14:38:02;21.30;99.90
17565;DHT22;62994;52.126;5.596;2022-08-19T14:40:30;21.50;99.90
17565;DHT22;62994;52.126;5.596;2022-08-19T14:43:03;21.60;99.90
17565;DHT22;62994;52.126;5.596;2022-08-19T14:45:33;21.80;99.90
17565;DHT22;62994;52.126;5.596;2022-08-19T14:48:01;21.80;99.90
17565;DHT22;62994;52.126;5.596;2022-08-19T14:50:28;21.90;99.90
17565;DHT22;62994;52.126;5.596;2022-08-19T14:52:59;21.90;99.90
17565;DHT22;62994;52.126;5.596;2022-08-19T14:55:27;22.00;99.90
17565;DHT22;62994;52.126;5.596;2022-08-19T14:57:54;22.10;99.90
17565;DHT22;62994;52.126;5.596;2022-08-19T15:00:21;22.20;99.90
17565;DHT22;62994;52.126;5.596;2022-08-19T15:02:51;22.10;99.90
17565;DHT22;62994;52.126;5.596;2022-08-19T15:05:20;22.20;99.90
17565;DHT22;62994;52.126;5.596;2022-08-19T15:07:48;22.50;99.90
17565;DHT22;62994;52.126;5.596;2022-08-19T15:10:16;22.60;99.90
17565;DHT22;62994;52.126;5.596;2022-08-19T15:12:43;22.80;99.90
17565;DHT22;62994;52.126;5.596;2022-08-19T15:15:12;23.00;99.90
17565;DHT22;62994;52.126;5.596;2022-08-19T15:17:40;23.10;99.90
17565;DHT22;62994;52.126;5.596;2022-08-19T15:20:10;23.10;99.90
17565;DHT22;62994;52.126;5.596;2022-08-19T15:22:38;23.10;99.90
17565;DHT22;62994;52.126;5.596;2022-08-19T15:25:08;23.10;99.90
17565;DHT22;62994;52.126;5.596;2022-08-19T15:27:35;23.10;99.90
17565;DHT22;62994;52.126;5.596;2022-08-19T15:30:05;23.30;99.90
17565;DHT22;62994;52.126;5.596;2022-08-19T15:32:33;23.60;99.90
17565;DHT22;62994;52.126;5.596;2022-08-19T15:35:01;23.90;99.90
17565;DHT22;62994;52.126;5.596;2022-08-19T15:37:30;24.20;99.90
17565;DHT22;62994;52.126;5.596;2022-08-19T15:39:57;24.20;99.90
17565;DHT22;62994;52.126;5.596;2022-08-19T15:42:24;24.20;99.90